sensor_id;sensor_type;location;lat;lon;timestamp;pressure;altitude;pressure_sealevel;temperature;humidity
69630;BME280;56857;52.212;5.496;2023-01-27T00:00:21;102636.03;;;4.20;100.00
69630;BME280;56857;52.212;5.496;2023-01-27T00:02:46;102631.13;;;4.14;100.00
69630;BME280;56857;52.212;5.496;2023-01-27T00:05:14;102625.09;;;4.12;100.00
69630;BME280;56857;52.212;5.496;2023-01-27T00:07:39;102614.94;;;4.06;100.00
69630;BME280;56857;52.212;5.496;2023-01-27T00:10:06;102620.28;;;4.04;100.00
69630;BME280;56857;52.212;5.496;2023-01-27T00:12:31;102630.94;;;4.01;100.00
69630;BME280;56857;52.212;5.496;2023-01-27T00:14:57;102621.44;;;3.99;100.00
69630;BME280;56857;52.212;5.496;2023-01-27T00:17:22;102627.69;;;3.96;100.00
69630;BME280;56857;52.212;5.496;2023-01-27T00:19:47;102620.69;;;3.97;100.00
69630;BME280;56857;52.212;5.496;2023-01-27T00:22:14;102627.69;;;3.96;100.00
69630;BME280;56857;52.212;5.496;2023-01-27T00:24:39;102620.69;;;3.97;100.00
69630;BME280;56857;52.212;5.496;2023-01-27T00:27:06;102632.00;;;3.97;100.00
69630;BME280;56857;52.212;5.496;2023-01-27T00:29:31;102628.47;;;3.98;100.00
69630;BME280;56857;52.212;5.496;2023-01-27T00:31:57;102627.81;;;3.94;100.00
69630;BME280;56857;52.212;5.496;2023-01-27T00:34:22;102623.47;;;3.93;100.00
69630;BME280;56857;52.212;5.496;2023-01-27T00:36:48;102628.81;;;3.92;100.00
69630;BME280;56857;52.212;5.496;2023-01-27T00:39:13;102636.56;;;3.93;100.00
69630;BME280;56857;52.212;5.496;2023-01-27T00:41:40;102634.06;;;3.92;100.00
69630;BME280;56857;52.212;5.496;2023-01-27T00:44:05;102634.13;;;3.90;100.00
69630;BME280;56857;52.212;5.496;2023-01-27T00:46:31;102638.47;;;3.91;100.00
69630;BME280;56857;52.212;5.496;2023-01-27T00:48:57;102645.56;;;3.89;100.00
69630;BME280;56857;52.212;5.496;2023-01-27T00:51:22;102636.84;;;3.89;100.00
69630;BME280;56857;52.212;5.496;2023-01-27T00:53:48;102628.97;;;3.89;100.00
69630;BME280;56857;52.212;5.496;2023-01-27T00:56:13;102635.91;;;3.90;100.00
69630;BME280;56857;52.212;5.496;2023-01-27T00:58:39;102640.31;;;3.89;100.00
69630;BME280;56857;52.212;5.496;2023-01-27T01:01:08;102641.25;;;3.88;100.00
69630;BME280;56857;52.212;5.496;2023-01-27T01:03:35;102642.88;;;3.91;100.00
69630;BME280;56857;52.212;5.496;2023-01-27T01:06:07;102641.94;;;3.92;100.00
69630;BME280;56857;52.212;5.496;2023-01-27T01:08:33;102641.94;;;3.92;100.00
69630;BME280;56857;52.212;5.496;2023-01-27T01:11:00;102643.59;;;3.93;100.00
69630;BME280;56857;52.212;5.496;2023-01-27T01:13:27;102639.97;;;3.95;100.00
69630;BME280;56857;52.212;5.496;2023-01-27T01:15:53;102645.22;;;3.95;100.00
69630;BME280;56857;52.212;5.496;2023-01-27T01:18:19;102654.09;;;3.93;100.00
69630;BME280;56857;52.212;5.496;2023-01-27T01:20:45;102647.91;;;3.94;100.00
69630;BME280;56857;52.212;5.496;2023-01-27T01:23:12;102646.91;;;3.97;100.00
69630;BME280;56857;52.212;5.496;2023-01-27T01:25:39;102645.91;;;3.99;100.00
69630;BME280;56857;52.212;5.496;2023-01-27T01:28:06;102648.63;;;3.98;100.00
69630;BME280;56857;52.212;5.496;2023-01-27T01:30:36;102654.72;;;3.98;100.00
69630;BME280;56857;52.212;5.496;2023-01-27T01:33:02;102660.88;;;3.97;100.00
69630;BME280;56857;52.212;5.496;2023-01-27T01:35:28;102659.19;;;3.96;100.00
69630;BME280;56857;52.212;5.496;2023-01-27T01:37:54;102651.16;;;3.99;100.00
69630;BME280;56857;52.212;5.496;2023-01-27T01:40:20;102659.03;;;3.99;100.00
69630;BME280;56857;52.212;5.496;2023-01-27T01:42:57;102666.91;;;3.99;100.00
69630;BME280;56857;52.212;5.496;2023-01-27T01:48:02;102672.00;;;4.02;100.00
69630;BME280;56857;52.212;5.496;2023-01-27T01:50:30;102666.66;;;4.04;100.00
69630;BME280;56857;52.212;5.496;2023-01-27T01:52:57;102665.81;;;4.03;100.00
69630;BME280;56857;52.212;5.496;2023-01-27T01:55:24;102667.41;;;4.06;100.00
69630;BME280;56857;52.212;5.496;2023-01-27T01:57:50;102672.81;;;4.03;100.00
69630;BME280;56857;52.212;5.496;2023-01-27T02:00:17;102669.47;;;4.01;100.00
69630;BME280;56857;52.212;5.496;2023-01-27T02:02:43;102668.59;;;4.00;100.00
69630;BME280;56857;52.212;5.496;2023-01-27T02:05:16;102671.31;;;3.99;100.00
69630;BME280;56857;52.212;5.496;2023-01-27T02:08:09;102673.25;;;3.95;100.00
69630;BME280;56857;52.212;5.496;2023-01-27T02:10:39;102668.22;;;3.90;100.00
69630;BME280;56857;52.212;5.496;2023-01-27T02:13:05;102670.09;;;3.88;100.00
69630;BME280;56857;52.212;5.496;2023-01-27T02:15:31;102669.25;;;3.88;100.00
69630;BME280;56857;52.212;5.496;2023-01-27T02:17:58;102665.03;;;3.85;100.00
69630;BME280;56857;52.212;5.496;2023-01-27T02:20:39;102666.81;;;3.85;100.00
69630;BME280;56857;52.212;5.496;2023-01-27T02:23:39;102679.13;;;3.83;100.00
69630;BME280;56857;52.212;5.496;2023-01-27T02:26:17;102671.50;;;3.78;100.00
69630;BME280;56857;52.212;5.496;2023-01-27T02:28:43;102675.06;;;3.77;100.00
69630;BME280;56857;52.212;5.496;2023-01-27T02:31:10;102672.69;;;3.72;100.00
69630;BME280;56857;52.212;5.496;2023-01-27T02:33:35;102679.78;;;3.70;100.00
69630;BME280;56857;52.212;5.496;2023-01-27T02:36:12;102679.16;;;3.65;100.00
69630;BME280;56857;52.212;5.496;2023-01-27T02:38:43;102686.28;;;3.63;100.00
69630;BME280;56857;52.212;5.496;2023-01-27T02:43:37;102689.91;;;3.61;100.00
69630;BME280;56857;52.212;5.496;2023-01-27T02:46:02;102685.50;;;3.61;100.00
69630;BME280;56857;52.212;5.496;2023-01-27T02:48:27;102697.75;;;3.61;100.00
69630;BME280;56857;52.212;5.496;2023-01-27T02:50:53;102697.75;;;3.61;100.00
69630;BME280;56857;52.212;5.496;2023-01-27T02:53:18;102698.06;;;3.55;100.00
69630;BME280;56857;52.212;5.496;2023-01-27T02:55:44;102706.94;;;3.52;100.00
69630;BME280;56857;52.212;5.496;2023-01-27T02:58:09;102701.78;;;3.51;100.00
69630;BME280;56857;52.212;5.496;2023-01-27T03:00:35;102705.94;;;3.55;100.00
69630;BME280;56857;52.212;5.496;2023-01-27T03:03:00;102692.97;;;3.52;100.00
69630;BME280;56857;52.212;5.496;2023-01-27T03:05:25;102701.78;;;3.51;100.00
69630;BME280;56857;52.212;5.496;2023-01-27T03:07:50;102691.19;;;3.52;100.00
69630;BME280;56857;52.212;5.496;2023-01-27T03:10:16;102698.16;;;3.53;100.00
69630;BME280;56857;52.212;5.496;2023-01-27T03:12:43;102693.81;;;3.52;100.00
69630;BME280;56857;52.212;5.496;2023-01-27T03:15:09;102703.41;;;3.53;100.00
69630;BME280;56857;52.212;5.496;2023-01-27T03:17:36;102700.84;;;3.52;100.00
69630;BME280;56857;52.212;5.496;2023-01-27T03:20:02;102713.03;;;3.53;100.00
69630;BME280;56857;52.212;5.496;2023-01-27T03:22:28;102703.56;;;3.50;100.00
69630;BME280;56857;52.212;5.496;2023-01-27T03:24:54;102710.50;;;3.51;100.00
69630;BME280;56857;52.212;5.496;2023-01-27T03:27:20;102709.66;;;3.51;100.00
69630;BME280;56857;52.212;5.496;2023-01-27T03:29:46;102714.13;;;3.48;100.00
69630;BME280;56857;52.212;5.496;2023-01-27T03:32:12;102706.09;;;3.52;100.00
69630;BME280;56857;52.212;5.496;2023-01-27T03:34:37;102709.56;;;3.52;100.00
69630;BME280;56857;52.212;5.496;2023-01-27T03:37:02;102706.09;;;3.52;100.00
69630;BME280;56857;52.212;5.496;2023-01-27T03:39:29;102708.72;;;3.52;100.00
69630;BME280;56857;52.212;5.496;2023-01-27T03:41:55;102709.41;;;3.55;100.00
69630;BME280;56857;52.212;5.496;2023-01-27T03:44:20;102705.78;;;3.58;100.00
69630;BME280;56857;52.212;5.496;2023-01-27T03:46:45;102703.16;;;3.58;100.00
69630;BME280;56857;52.212;5.496;2023-01-27T03:49:11;102710.78;;;3.62;100.00
69630;BME280;56857;52.212;5.496;2023-01-27T03:51:36;102712.56;;;3.62;100.00
69630;BME280;56857;52.212;5.496;2023-01-27T03:54:01;102714.19;;;3.64;100.00
69630;BME280;56857;52.212;5.496;2023-01-27T03:56:27;102719.38;;;3.66;100.00
69630;BME280;56857;52.212;5.496;2023-01-27T03:58:52;102720.97;;;3.68;100.00
69630;BME280;56857;52.212;5.496;2023-01-27T04:01:20;102725.31;;;3.69;100.00
69630;BME280;56857;52.212;5.496;2023-01-27T04:03:46;102725.16;;;3.72;100.00
69630;BME280;56857;52.212;5.496;2023-01-27T04:06:20;102722.53;;;3.72;100.00
69630;BME280;56857;52.212;5.496;2023-01-27T04:08:46;102721.50;;;3.75;100.00
69630;BME280;56857;52.212;5.496;2023-01-27T04:11:11;102729.13;;;3.80;100.00
69630;BME280;56857;52.212;5.496;2023-01-27T04:13:36;102724.84;;;3.79;100.00
69630;BME280;56857;52.212;5.496;2023-01-27T04:16:02;102729.97;;;3.80;100.00
69630;BME280;56857;52.212;5.496;2023-01-27T04:18:27;102722.91;;;3.82;100.00
69630;BME280;56857;52.212;5.496;2023-01-27T04:20:52;102724.53;;;3.85;100.00
69630;BME280;56857;52.212;5.496;2023-01-27T04:23:18;102734.22;;;3.83;100.00
69630;BME280;56857;52.212;5.496;2023-01-27T04:25:43;102735.00;;;3.85;100.00
69630;BME280;56857;52.212;5.496;2023-01-27T04:28:08;102735.00;;;3.85;100.00
69630;BME280;56857;52.212;5.496;2023-01-27T04:30:34;102748.13;;;3.85;100.00
69630;BME280;56857;52.212;5.496;2023-01-27T04:32:59;102740.25;;;3.85;100.00
69630;BME280;56857;52.212;5.496;2023-01-27T04:35:24;102741.00;;;3.87;100.00
69630;BME280;56857;52.212;5.496;2023-01-27T04:37:49;102747.19;;;3.86;100.00
69630;BME280;56857;52.212;5.496;2023-01-27T04:40:15;102748.88;;;3.87;100.00
69630;BME280;56857;52.212;5.496;2023-01-27T04:42:40;102746.09;;;3.90;100.00
69630;BME280;56857;52.212;5.496;2023-01-27T04:45:06;102743.41;;;3.91;100.00
69630;BME280;56857;52.212;5.496;2023-01-27T04:47:32;102744.31;;;3.90;100.00
69630;BME280;56857;52.212;5.496;2023-01-27T04:49:57;102741.69;;;3.90;100.00
69630;BME280;56857;52.212;5.496;2023-01-27T04:52:22;102750.34;;;3.92;100.00
69630;BME280;56857;52.212;5.496;2023-01-27T04:54:50;102739.06;;;3.90;100.00
69630;BME280;56857;52.212;5.496;2023-01-27T04:57:15;102747.81;;;3.91;100.00
69630;BME280;56857;52.212;5.496;2023-01-27T04:59:41;102737.47;;;3.88;100.00
69630;BME280;56857;52.212;5.496;2023-01-27T05:02:06;102750.50;;;3.89;100.00
69630;BME280;56857;52.212;5.496;2023-01-27T05:04:31;102746.09;;;3.90;100.00
69630;BME280;56857;52.212;5.496;2023-01-27T05:06:57;102745.25;;;3.89;100.00
69630;BME280;56857;52.212;5.496;2023-01-27T05:09:23;102747.88;;;3.89;100.00
69630;BME280;56857;52.212;5.496;2023-01-27T05:11:48;102752.19;;;3.90;100.00
69630;BME280;56857;52.212;5.496;2023-01-27T05:14:15;102743.47;;;3.90;100.00
69630;BME280;56857;52.212;5.496;2023-01-27T05:16:40;102747.97;;;3.88;100.00
69630;BME280;56857;52.212;5.496;2023-01-27T05:19:07;102761.00;;;3.89;100.00
69630;BME280;56857;52.212;5.496;2023-01-27T05:21:33;102758.31;;;3.91;100.00
69630;BME280;56857;52.212;5.496;2023-01-27T05:23:58;102766.25;;;3.89;100.00
69630;BME280;56857;52.212;5.496;2023-01-27T05:26:26;102767.94;;;3.90;100.00
69630;BME280;56857;52.212;5.496;2023-01-27T05:28:52;102761.78;;;3.91;100.00
69630;BME280;56857;52.212;5.496;2023-01-27T05:31:24;102770.34;;;3.95;100.00
69630;BME280;56857;52.212;5.496;2023-01-27T05:33:52;102775.50;;;3.97;100.00
69630;BME280;56857;52.212;5.496;2023-01-27T05:36:19;102775.59;;;3.95;100.00
69630;BME280;56857;52.212;5.496;2023-01-27T05:38:45;102782.44;;;3.98;100.00
69630;BME280;56857;52.212;5.496;2023-01-27T05:41:12;102771.09;;;3.97;100.00
69630;BME280;56857;52.212;5.496;2023-01-27T05:43:40;102776.25;;;3.99;100.00
69630;BME280;56857;52.212;5.496;2023-01-27T05:46:14;102782.28;;;4.01;100.00
69630;BME280;56857;52.212;5.496;2023-01-27T05:48:43;102790.06;;;4.02;100.00
69630;BME280;56857;52.212;5.496;2023-01-27T05:51:10;102786.81;;;3.97;100.00
69630;BME280;56857;52.212;5.496;2023-01-27T05:53:37;102787.69;;;3.98;100.00
69630;BME280;56857;52.212;5.496;2023-01-27T05:56:03;102793.84;;;3.97;100.00
69630;BME280;56857;52.212;5.496;2023-01-27T05:58:29;102793.84;;;3.97;100.00
69630;BME280;56857;52.212;5.496;2023-01-27T06:00:55;102800.09;;;3.94;100.00
69630;BME280;56857;52.212;5.496;2023-01-27T06:03:21;102802.66;;;3.95;100.00
69630;BME280;56857;52.212;5.496;2023-01-27T06:05:52;102804.44;;;3.95;100.00
69630;BME280;56857;52.212;5.496;2023-01-27T06:08:17;102800.03;;;3.95;100.00
69630;BME280;56857;52.212;5.496;2023-01-27T06:10:43;102797.47;;;3.94;100.00
69630;BME280;56857;52.212;5.496;2023-01-27T06:13:08;102800.19;;;3.92;100.00
69630;BME280;56857;52.212;5.496;2023-01-27T06:15:34;102803.81;;;3.90;100.00
69630;BME280;56857;52.212;5.496;2023-01-27T06:18:01;102811.84;;;3.87;100.00
69630;BME280;56857;52.212;5.496;2023-01-27T06:20:28;102806.59;;;3.87;100.00
69630;BME280;56857;52.212;5.496;2023-01-27T06:22:53;102799.66;;;3.86;100.00
69630;BME280;56857;52.212;5.496;2023-01-27T06:25:18;102812.78;;;3.86;100.00
69630;BME280;56857;52.212;5.496;2023-01-27T06:27:44;102817.19;;;3.85;100.00
69630;BME280;56857;52.212;5.496;2023-01-27T06:30:09;102818.97;;;3.85;100.00
69630;BME280;56857;52.212;5.496;2023-01-27T06:32:35;102815.47;;;3.84;100.00
69630;BME280;56857;52.212;5.496;2023-01-27T06:35:01;102826.84;;;3.85;100.00
69630;BME280;56857;52.212;5.496;2023-01-27T06:37:29;102825.13;;;3.84;100.00
69630;BME280;56857;52.212;5.496;2023-01-27T06:39:55;102829.50;;;3.83;100.00
69630;BME280;56857;52.212;5.496;2023-01-27T06:42:20;102831.34;;;3.81;100.00
69630;BME280;56857;52.212;5.496;2023-01-27T06:44:45;102834.13;;;3.78;100.00
69630;BME280;56857;52.212;5.496;2023-01-27T06:47:11;102821.75;;;3.82;100.00
69630;BME280;56857;52.212;5.496;2023-01-27T06:49:36;102822.72;;;3.79;100.00
69630;BME280;56857;52.212;5.496;2023-01-27T06:52:02;102835.00;;;3.79;100.00
69630;BME280;56857;52.212;5.496;2023-01-27T06:54:27;102831.75;;;3.74;100.00
69630;BME280;56857;52.212;5.496;2023-01-27T06:56:52;102825.81;;;3.70;100.00
69630;BME280;56857;52.212;5.496;2023-01-27T06:59:18;102827.59;;;3.69;100.00
69630;BME280;56857;52.212;5.496;2023-01-27T07:01:44;102821.50;;;3.69;100.00
69630;BME280;56857;52.212;5.496;2023-01-27T07:04:09;102825.19;;;3.65;100.00
69630;BME280;56857;52.212;5.496;2023-01-27T07:06:35;102816.47;;;3.64;100.00
69630;BME280;56857;52.212;5.496;2023-01-27T07:09:00;102815.84;;;3.59;100.00
69630;BME280;56857;52.212;5.496;2023-01-27T07:11:26;102823.69;;;3.59;100.00
69630;BME280;56857;52.212;5.496;2023-01-27T07:13:52;102824.63;;;3.58;100.00
69630;BME280;56857;52.212;5.496;2023-01-27T07:16:17;102823.69;;;3.59;100.00
69630;BME280;56857;52.212;5.496;2023-01-27T07:18:42;102825.28;;;3.63;100.00
69630;BME280;56857;52.212;5.496;2023-01-27T07:21:08;102827.81;;;3.65;100.00
69630;BME280;56857;52.212;5.496;2023-01-27T07:23:33;102829.44;;;3.67;100.00
69630;BME280;56857;52.212;5.496;2023-01-27T07:26:02;102825.97;;;3.67;100.00
69630;BME280;56857;52.212;5.496;2023-01-27T07:28:27;102834.75;;;3.66;100.00
69630;BME280;56857;52.212;5.496;2023-01-27T07:30:53;102834.81;;;3.64;100.00
69630;BME280;56857;52.212;5.496;2023-01-27T07:33:18;102835.66;;;3.65;100.00
69630;BME280;56857;52.212;5.496;2023-01-27T07:35:47;102838.13;;;3.68;100.00
69630;BME280;56857;52.212;5.496;2023-01-27T07:38:13;102848.72;;;3.66;100.00
69630;BME280;56857;52.212;5.496;2023-01-27T07:40:38;102851.41;;;3.65;100.00
69630;BME280;56857;52.212;5.496;2023-01-27T07:43:03;102850.56;;;3.64;100.00
69630;BME280;56857;52.212;5.496;2023-01-27T07:45:29;102855.81;;;3.64;100.00
69630;BME280;56857;52.212;5.496;2023-01-27T07:48:02;102854.97;;;3.64;100.00
69630;BME280;56857;52.212;5.496;2023-01-27T07:50:28;102862.75;;;3.65;100.00
69630;BME280;56857;52.212;5.496;2023-01-27T07:52:57;102856.75;;;3.63;100.00
69630;BME280;56857;52.212;5.496;2023-01-27T07:55:24;102858.53;;;3.63;100.00
69630;BME280;56857;52.212;5.496;2023-01-27T07:57:52;102859.41;;;3.62;100.00
69630;BME280;56857;52.212;5.496;2023-01-27T08:00:17;102862.03;;;3.62;100.00
69630;BME280;56857;52.212;5.496;2023-01-27T08:02:43;102863.81;;;3.61;100.00
69630;BME280;56857;52.212;5.496;2023-01-27T08:05:08;102864.75;;;3.60;100.00
69630;BME280;56857;52.212;5.496;2023-01-27T08:07:34;102857.09;;;3.56;100.00
69630;BME280;56857;52.212;5.496;2023-01-27T08:09:59;102862.56;;;3.51;100.00
69630;BME280;56857;52.212;5.496;2023-01-27T08:12:24;102864.25;;;3.52;100.00
69630;BME280;56857;52.212;5.496;2023-01-27T08:14:50;102868.66;;;3.52;100.00
69630;BME280;56857;52.212;5.496;2023-01-27T08:17:15;102872.13;;;3.52;100.00
69630;BME280;56857;52.212;5.496;2023-01-27T08:19:40;102874.53;;;3.57;100.00
69630;BME280;56857;52.212;5.496;2023-01-27T08:22:07;102878.78;;;3.59;100.00
69630;BME280;56857;52.212;5.496;2023-01-27T08:24:32;102868.13;;;3.62;100.00
69630;BME280;56857;52.212;5.496;2023-01-27T08:26:57;102867.28;;;3.62;100.00
69630;BME280;56857;52.212;5.496;2023-01-27T08:29:23;102865.34;;;3.65;100.00
69630;BME280;56857;52.212;5.496;2023-01-27T08:31:48;102863.66;;;3.64;100.00
69630;BME280;56857;52.212;5.496;2023-01-27T08:34:13;102866.38;;;3.63;100.00
69630;BME280;56857;52.212;5.496;2023-01-27T08:36:40;102869.84;;;3.63;100.00
69630;BME280;56857;52.212;5.496;2023-01-27T08:39:06;102870.75;;;3.62;100.00
69630;BME280;56857;52.212;5.496;2023-01-27T08:41:31;102870.59;;;3.65;100.00
69630;BME280;56857;52.212;5.496;2023-01-27T08:43:56;102871.41;;;3.67;100.00
69630;BME280;56857;52.212;5.496;2023-01-27T08:46:21;102875.72;;;3.68;100.00
69630;BME280;56857;52.212;5.496;2023-01-27T08:48:47;102883.56;;;3.68;100.00
69630;BME280;56857;52.212;5.496;2023-01-27T08:51:13;102874.94;;;3.66;100.00
69630;BME280;56857;52.212;5.496;2023-01-27T08:53:39;102881.09;;;3.65;100.00
69630;BME280;56857;52.212;5.496;2023-01-27T08:56:07;102877.56;;;3.66;100.00
69630;BME280;56857;52.212;5.496;2023-01-27T08:58:34;102884.75;;;3.63;100.00
69630;BME280;56857;52.212;5.496;2023-01-27T09:01:01;102883.13;;;3.60;100.00
69630;BME280;56857;52.212;5.496;2023-01-27T09:03:29;102888.41;;;3.59;100.00
69630;BME280;56857;52.212;5.496;2023-01-27T09:05:54;102892.75;;;3.60;100.00
69630;BME280;56857;52.212;5.496;2023-01-27T09:08:20;102897.06;;;3.61;100.00
69630;BME280;56857;52.212;5.496;2023-01-27T09:10:45;102896.22;;;3.60;100.00
69630;BME280;56857;52.212;5.496;2023-01-27T09:13:11;102889.34;;;3.58;100.00
69630;BME280;56857;52.212;5.496;2023-01-27T09:15:37;102893.66;;;3.59;100.00
69630;BME280;56857;52.212;5.496;2023-01-27T09:18:04;102899.59;;;3.62;100.00
69630;BME280;56857;52.212;5.496;2023-01-27T09:20:29;102909.03;;;3.66;100.00
69630;BME280;56857;52.212;5.496;2023-01-27T09:22:55;102908.66;;;3.74;100.00
69630;BME280;56857;52.212;5.496;2023-01-27T09:25:20;102912.91;;;3.77;100.00
69630;BME280;56857;52.212;5.496;2023-01-27T09:27:45;102919.84;;;3.78;100.00
69630;BME280;56857;52.212;5.496;2023-01-27T09:30:12;102923.31;;;3.78;100.00
69630;BME280;56857;52.212;5.496;2023-01-27T09:32:38;102924.09;;;3.80;100.00
69630;BME280;56857;52.212;5.496;2023-01-27T09:35:04;102922.47;;;3.78;100.00
69630;BME280;56857;52.212;5.496;2023-01-27T09:37:32;102930.34;;;3.78;100.00
69630;BME280;56857;52.212;5.496;2023-01-27T09:40:02;102932.97;;;3.78;100.00
69630;BME280;56857;52.212;5.496;2023-01-27T09:42:40;102925.78;;;3.81;100.00
69630;BME280;56857;52.212;5.496;2023-01-27T09:45:25;102929.06;;;3.86;100.00
69630;BME280;56857;52.212;5.496;2023-01-27T09:48:18;102931.84;;;3.83;100.00
69630;BME280;56857;52.212;5.496;2023-01-27T09:50:57;102921.50;;;3.80;100.00
69630;BME280;56857;52.212;5.496;2023-01-27T09:53:51;102928.41;;;3.81;100.00
69630;BME280;56857;52.212;5.496;2023-01-27T09:59:49;102935.38;;;3.82;100.00
69630;BME280;56857;52.212;5.496;2023-01-27T10:02:44;102945.78;;;3.84;100.00
69630;BME280;56857;52.212;5.496;2023-01-27T10:05:37;102936.94;;;3.86;100.00
69630;BME280;56857;52.212;5.496;2023-01-27T10:08:19;102930.00;;;3.85;100.00
69630;BME280;56857;52.212;5.496;2023-01-27T10:11:22;102939.66;;;3.85;100.00
69630;BME280;56857;52.212;5.496;2023-01-27T10:27:36;102946.13;;;3.95;100.00
69630;BME280;56857;52.212;5.496;2023-01-27T10:30:24;102940.88;;;3.95;100.00
69630;BME280;56857;52.212;5.496;2023-01-27T10:33:18;102944.22;;;3.99;100.00
69630;BME280;56857;52.212;5.496;2023-01-27T10:36:07;102944.84;;;4.04;100.00
69630;BME280;56857;52.212;5.496;2023-01-27T10:38:42;102944.69;;;4.07;100.00
69630;BME280;56857;52.212;5.496;2023-01-27T10:44:02;102944.59;;;4.08;100.00
69630;BME280;56857;52.212;5.496;2023-01-27T10:46:50;102950.50;;;4.13;100.00
69630;BME280;56857;52.212;5.496;2023-01-27T10:52:08;102954.13;;;4.11;100.00
69630;BME280;56857;52.212;5.496;2023-01-27T10:54:39;102950.50;;;4.13;100.00
69630;BME280;56857;52.212;5.496;2023-01-27T10:57:27;102950.56;;;4.12;100.00
69630;BME280;56857;52.212;5.496;2023-01-27T11:00:03;102944.56;;;4.10;100.00
69630;BME280;56857;52.212;5.496;2023-01-27T11:05:41;102944.84;;;4.04;100.00
69630;BME280;56857;52.212;5.496;2023-01-27T11:08:14;102941.28;;;4.05;100.00
69630;BME280;56857;52.212;5.496;2023-01-27T11:10:44;102939.44;;;4.07;100.00
69630;BME280;56857;52.212;5.496;2023-01-27T11:13:13;102940.22;;;4.09;100.00
69630;BME280;56857;52.212;5.496;2023-01-27T11:15:40;102936.50;;;4.13;100.00
69630;BME280;56857;52.212;5.496;2023-01-27T11:18:16;102933.81;;;4.14;100.00
69630;BME280;56857;52.212;5.496;2023-01-27T11:20:48;102942.63;;;4.13;100.00
69630;BME280;56857;52.212;5.496;2023-01-27T11:23:39;102935.66;;;4.12;100.00
69630;BME280;56857;52.212;5.496;2023-01-27T11:26:24;102933.03;;;4.12;100.00
69630;BME280;56857;52.212;5.496;2023-01-27T11:36:53;102925.00;;;4.15;100.00
69630;BME280;56857;52.212;5.496;2023-01-27T11:39:19;102919.75;;;4.15;100.00
69630;BME280;56857;52.212;5.496;2023-01-27T11:41:53;102924.69;;;4.22;100.00
69630;BME280;56857;52.212;5.496;2023-01-27T11:44:22;102920.06;;;4.27;100.00
69630;BME280;56857;52.212;5.496;2023-01-27T11:46:49;102920.66;;;4.32;100.00
69630;BME280;56857;52.212;5.496;2023-01-27T11:49:20;102910.25;;;4.30;100.00
69630;BME280;56857;52.212;5.496;2023-01-27T11:51:47;102905.53;;;4.37;100.00
69630;BME280;56857;52.212;5.496;2023-01-27T11:54:27;102902.84;;;4.38;100.00
69630;BME280;56857;52.212;5.496;2023-01-27T11:56:53;102896.41;;;4.44;100.00
69630;BME280;56857;52.212;5.496;2023-01-27T11:59:29;102902.13;;;4.52;100.00
69630;BME280;56857;52.212;5.496;2023-01-27T12:02:01;102899.34;;;4.55;100.00
69630;BME280;56857;52.212;5.496;2023-01-27T12:05:02;102902.81;;;4.56;100.00
69630;BME280;56857;52.212;5.496;2023-01-27T12:07:51;102898.25;;;4.59;100.00
69630;BME280;56857;52.212;5.496;2023-01-27T12:10:39;102893.84;;;4.60;100.00
69630;BME280;56857;52.212;5.496;2023-01-27T12:13:24;102894.72;;;4.60;100.00
69630;BME280;56857;52.212;5.496;2023-01-27T12:15:53;102888.44;;;4.63;100.00
69630;BME280;56857;52.212;5.496;2023-01-27T12:18:20;102886.75;;;4.62;100.00
69630;BME280;56857;52.212;5.496;2023-01-27T12:20:48;102886.84;;;4.60;100.00
69630;BME280;56857;52.212;5.496;2023-01-27T12:23:31;102891.16;;;4.61;100.00
69630;BME280;56857;52.212;5.496;2023-01-27T12:26:01;102884.13;;;4.62;100.00
69630;BME280;56857;52.212;5.496;2023-01-27T12:31:01;102887.75;;;4.59;100.00
69630;BME280;56857;52.212;5.496;2023-01-27T12:33:30;102871.94;;;4.61;100.00
69630;BME280;56857;52.212;5.496;2023-01-27T12:35:59;102869.19;;;4.62;100.00
69630;BME280;56857;52.212;5.496;2023-01-27T12:38:32;102881.66;;;4.59;100.00
69630;BME280;56857;52.212;5.496;2023-01-27T12:41:05;102871.09;;;4.60;100.00
69630;BME280;56857;52.212;5.496;2023-01-27T12:43:49;102875.78;;;4.54;100.00
69630;BME280;56857;52.212;5.496;2023-01-27T12:46:25;102873.31;;;4.51;100.00
69630;BME280;56857;52.212;5.496;2023-01-27T12:48:53;102872.63;;;4.47;100.00
69630;BME280;56857;52.212;5.496;2023-01-27T12:51:37;102878.81;;;4.46;100.00
69630;BME280;56857;52.212;5.496;2023-01-27T12:54:24;102870.25;;;4.43;100.00
69630;BME280;56857;52.212;5.496;2023-01-27T12:56:51;102871.25;;;4.40;100.00
69630;BME280;56857;52.212;5.496;2023-01-27T12:59:18;102871.19;;;4.41;100.00
69630;BME280;56857;52.212;5.496;2023-01-27T13:01:57;102870.41;;;4.39;100.00
69630;BME280;56857;52.212;5.496;2023-01-27T13:04:24;102872.19;;;4.39;100.00
69630;BME280;56857;52.212;5.496;2023-01-27T13:07:05;102868.72;;;4.38;100.00
69630;BME280;56857;52.212;5.496;2023-01-27T13:09:32;102866.94;;;4.39;100.00
69630;BME280;56857;52.212;5.496;2023-01-27T13:12:03;102867.84;;;4.38;100.00
69630;BME280;56857;52.212;5.496;2023-01-27T13:14:39;102869.41;;;4.42;100.00
69630;BME280;56857;52.212;5.496;2023-01-27T13:17:44;102870.31;;;4.41;100.00
69630;BME280;56857;52.212;5.496;2023-01-27T13:22:53;102867.78;;;4.39;100.00
69630;BME280;56857;52.212;5.496;2023-01-27T13:25:23;102884.38;;;4.40;100.00
69630;BME280;56857;52.212;5.496;2023-01-27T13:27:54;102871.41;;;4.37;100.00
69630;BME280;56857;52.212;5.496;2023-01-27T13:30:34;102882.06;;;4.34;100.00
69630;BME280;56857;52.212;5.496;2023-01-27T13:35:56;102874.34;;;4.31;100.00
69630;BME280;56857;52.212;5.496;2023-01-27T13:39:00;102876.03;;;4.32;100.00
69630;BME280;56857;52.212;5.496;2023-01-27T13:41:38;102874.19;;;4.34;100.00
69630;BME280;56857;52.212;5.496;2023-01-27T13:44:20;102877.50;;;4.37;100.00
69630;BME280;56857;52.212;5.496;2023-01-27T13:46:49;102876.81;;;4.34;100.00